Seul Choix Point, Michigan
Current Conditions -  °F | °C
As of 4:55 PM on Tuesday 25 Nov 2014 (Local Time) from KISQ Reporting Station
Scattered Clouds Scattered Clouds  
Wind Chill: 18°   Ceiling: Unl
Heat Index: 24°   Visibility: 10mi
Dew Point: 19°   Wind: 5mph
Humidity: 80%   Direction: 270°W
Pressure: 30.02"   Gusts: NA
Location:  45.92°N, 85.92°W
Report Text: KISQ 252155Z AUTO 27004KT 10SM SCT023 SCT036 M05/M07 A3002 RMK AO2 T10461075
Loading
Personal Weather Stations






























Interactive Weather Map New forecast layout! Learn more

10-Day Weather Forecast

Advertisements
Track Severe Weather on mobile